< < Back
Terminal Aerodrome Forecast


Current Version              Previous Versions:   1  2  3  4  5  6  7  8  9  

Terminal Aerodrome Forecast

761
FTUS44 KHUN 172320
TAFHSV
TAF
KHSV 172320Z 1800/1824 13006KT P6SM BKN060 BKN150
     FM180400 11008KT P6SM BKN035 OVC060
     FM181800 07008KT P6SM OVC050=

Latest METAR

025
SAUS80 KWBC 182300 CCA
MTRHSV
METAR KHSV 182253Z 03004KT 10SM SCT060 OVC200 18/08 A3017 RMK AO2 SLP214
T01830083


USA.gov is the U.S. government's official web portal to all federal, state and local government web resources and services.